Time;durP1;ratioP1;P1;durP2;ratioP2;P2;SDS_P1;SDS_P2;PMS_P1;PMS_P2;Temp;Humidity;BMP_temperature;BMP_pressure;BME280_temperature;BME280_humidity;BME280_pressure;Samples;Min_cycle;Max_cycle;Signal;HPM_P1;HPM_P2
2023/11/17 05:01:10;;;;;;;1.83;1.73;;;3.60;97.30;;;;;;5606855;23;20875;-85
2023/11/17 05:03:36;;;;;;;2.33;1.60;;;3.60;97.30;;;;;;4876991;29;20449;-86
2023/11/17 05:06:06;;;;;;;3.27;2.30;;;3.60;97.30;;;;;;4878138;29;20421;-86
2023/11/17 05:08:32;;;;;;;2.57;1.73;;;3.60;97.30;;;;;;4875908;29;20178;-85
2023/11/17 05:10:59;;;;;;;1.90;1.80;;;3.60;97.30;;;;;;4878107;29;20509;-86
2023/11/17 05:13:25;;;;;;;1.67;1.43;;;3.60;97.30;;;;;;4875387;29;20425;-85
2023/11/17 05:15:50;;;;;;;1.10;1.00;;;3.60;97.30;;;;;;4889476;29;20560;-85
2023/11/17 05:18:16;;;;;;;1.30;1.20;;;3.60;97.30;;;;;;4878027;29;20520;-86
2023/11/17 05:20:42;;;;;;;1.97;1.87;;;3.60;97.30;;;;;;4894772;29;20193;-84
2023/11/17 05:23:12;;;;;;;1.70;1.60;;;3.60;97.30;;;;;;4874778;29;20174;-86
2023/11/17 05:25:40;;;;;;;2.23;2.03;;;3.60;97.30;;;;;;4890016;29;20553;-85
2023/11/17 05:28:08;;;;;;;1.13;1.03;;;3.60;97.30;;;;;;4884864;29;20474;-86
2023/11/17 05:30:34;;;;;;;1.30;1.20;;;3.60;97.30;;;;;;4880175;29;20425;-85
2023/11/17 05:33:00;;;;;;;2.90;2.70;;;3.60;97.30;;;;;;4891118;29;20444;-86
2023/11/17 05:35:25;;;;;;;2.93;1.33;;;3.60;97.30;;;;;;4883760;29;20480;-85
2023/11/17 05:37:51;;;;;;;1.70;1.60;;;3.60;97.30;;;;;;4881292;29;20433;-85
2023/11/17 05:40:16;;;;;;;4.13;2.00;;;3.60;97.30;;;;;;4878860;29;20182;-86
2023/11/17 05:42:42;;;;;;;1.60;1.50;;;3.60;97.30;;;;;;4889077;29;20557;-87
2023/11/17 05:45:12;;;;;;;2.50;1.83;;;3.60;97.30;;;;;;4876961;29;20263;-85
2023/11/17 05:47:38;;;;;;;1.70;1.60;;;3.60;97.30;;;;;;4892465;29;20449;-85
2023/11/17 05:50:06;;;;;;;1.47;1.37;;;3.60;97.30;;;;;;4876007;29;20468;-85
2023/11/17 05:52:32;;;;;;;1.80;1.73;;;3.60;97.30;;;;;;4880202;29;20457;-84
2023/11/17 05:54:57;;;;;;;1.93;1.80;;;3.70;97.30;;;;;;4896191;29;20472;-85
2023/11/17 05:57:23;;;;;;;2.10;1.83;;;3.70;97.30;;;;;;4882182;29;20463;-86
2023/11/17 05:59:50;;;;;;;1.60;1.50;;;3.70;97.30;;;;;;4886305;29;20692;-86
2023/11/17 06:02:16;;;;;;;1.30;1.20;;;3.70;97.30;;;;;;4903004;29;20702;-85
2023/11/17 06:04:42;;;;;;;2.93;2.73;;;3.70;97.30;;;;;;4899215;29;20456;-87
2023/11/17 06:07:10;;;;;;;1.30;1.20;;;3.70;97.30;;;;;;4880841;29;20181;-86
2023/11/17 06:09:37;;;;;;;5.40;2.07;;;3.70;97.30;;;;;;4875799;29;20194;-85
2023/11/17 06:12:03;;;;;;;1.87;1.50;;;3.70;97.30;;;;;;4875890;29;20525;-85
2023/11/17 06:14:35;;;;;;;1.87;1.77;;;3.70;97.30;;;;;;4891532;29;20441;-86
2023/11/17 06:17:06;;;;;;;1.37;1.33;;;3.70;97.30;;;;;;4880897;29;20481;-85
2023/11/17 06:19:33;;;;;;;1.53;1.47;;;3.80;97.30;;;;;;4879275;29;20428;-85
2023/11/17 06:21:59;;;;;;;2.10;1.73;;;3.70;97.30;;;;;;4880310;29;20425;-86
2023/11/17 06:24:25;;;;;;;2.20;2.07;;;3.80;97.30;;;;;;4886464;29;20426;-85
2023/11/17 06:26:51;;;;;;;1.37;1.30;;;3.80;97.30;;;;;;4881700;29;20555;-85
2023/11/17 06:29:22;;;;;;;1.20;1.10;;;3.80;97.30;;;;;;4889025;29;20808;-85
2023/11/17 06:31:49;;;;;;;2.70;2.30;;;3.80;97.30;;;;;;4884955;29;20260;-87
2023/11/17 06:34:15;;;;;;;2.27;2.07;;;3.90;97.30;;;;;;4889168;29;20738;-83
2023/11/17 06:36:41;;;;;;;3.20;1.60;;;3.90;97.30;;;;;;4892357;29;20469;-83
2023/11/17 06:39:14;;;;;;;2.40;2.23;;;3.90;97.30;;;;;;4889111;29;20421;-83
2023/11/17 06:41:44;;;;;;;1.83;1.77;;;3.90;97.30;;;;;;4884856;29;20453;-84
2023/11/17 06:44:10;;;;;;;1.63;1.53;;;3.90;97.30;;;;;;4902021;29;20420;-84
2023/11/17 06:46:37;;;;;;;1.67;1.57;;;3.90;97.30;;;;;;4883894;29;20425;-85
2023/11/17 06:49:04;;;;;;;1.67;1.57;;;3.90;97.30;;;;;;4893238;29;20501;-87
2023/11/17 06:51:31;;;;;;;1.67;1.60;;;3.90;97.30;;;;;;4885946;29;20520;-84
2023/11/17 06:53:57;;;;;;;2.53;2.20;;;3.90;97.30;;;;;;4884597;29;20460;-84
2023/11/17 06:56:23;;;;;;;2.70;2.50;;;3.90;97.30;;;;;;4889084;29;20465;-84
2023/11/17 06:58:48;;;;;;;3.10;2.90;;;3.90;97.30;;;;;;4885810;29;20524;-84
2023/11/17 07:01:14;;;;;;;2.57;2.37;;;3.90;97.30;;;;;;4880981;29;20238;-84
2023/11/17 07:03:42;;;;;;;2.03;1.90;;;3.90;97.30;;;;;;4881310;29;20182;-84
2023/11/17 07:06:08;;;;;;;1.87;1.77;;;3.90;97.30;;;;;;4881225;29;20433;-84
2023/11/17 07:08:33;;;;;;;4.57;2.83;;;3.90;97.30;;;;;;4880314;29;20438;-87
2023/11/17 07:10:59;;;;;;;3.53;3.00;;;3.90;97.30;;;;;;4882330;29;20224;-86
2023/11/17 07:13:26;;;;;;;3.23;2.00;;;4.00;97.30;;;;;;4881941;29;20204;-84
2023/11/17 07:15:53;;;;;;;1.33;1.23;;;4.00;97.30;;;;;;4882856;29;20561;-84
2023/11/17 07:18:20;;;;;;;1.37;1.27;;;4.00;97.30;;;;;;4879804;29;20450;-84
2023/11/17 07:20:46;;;;;;;1.60;1.50;;;4.00;97.30;;;;;;4881365;29;20450;-85
2023/11/17 07:23:11;;;;;;;2.30;2.10;;;3.90;97.30;;;;;;4882508;29;20427;-81
2023/11/17 07:25:41;;;;;;;2.13;1.97;;;4.00;97.30;;;;;;4882532;29;20367;-84
2023/11/17 07:28:06;;;;;;;4.57;1.37;;;3.90;97.30;;;;;;4882334;29;20204;-85
2023/11/17 07:30:34;;;;;;;1.27;1.20;;;4.00;97.30;;;;;;4881440;29;20430;-84
2023/11/17 07:32:59;;;;;;;1.20;1.10;;;4.00;97.30;;;;;;4881101;29;20246;-85
2023/11/17 07:35:26;;;;;;;1.73;1.63;;;4.00;97.30;;;;;;4880501;29;20489;-87
2023/11/17 07:37:52;;;;;;;2.70;2.60;;;4.00;97.30;;;;;;4881752;29;20276;-86
2023/11/17 07:40:18;;;;;;;1.27;1.17;;;4.00;97.30;;;;;;4880591;29;20464;-83
2023/11/17 07:42:43;;;;;;;1.77;1.67;;;4.00;97.30;;;;;;4881319;29;20652;-85
2023/11/17 07:45:11;;;;;;;1.17;1.07;;;4.00;97.30;;;;;;4881047;29;20192;-85
2023/11/17 07:47:36;;;;;;;1.87;1.77;;;4.10;97.30;;;;;;4881458;29;20228;-84
2023/11/17 07:50:07;;;;;;;2.20;1.60;;;4.10;97.30;;;;;;4881536;29;20841;-84
2023/11/17 07:52:33;;;;;;;1.43;1.33;;;4.10;97.30;;;;;;4879832;29;20450;-84
2023/11/17 07:54:59;;;;;;;1.77;1.60;;;4.10;97.30;;;;;;4879825;29;20829;-83
2023/11/17 07:57:25;;;;;;;1.60;1.37;;;4.10;97.30;;;;;;4881098;29;20453;-82
2023/11/17 07:59:50;;;;;;;1.40;1.30;;;4.20;97.30;;;;;;4882398;29;20945;-85
2023/11/17 08:02:16;;;;;;;1.57;1.50;;;4.20;97.30;;;;;;4880292;29;20256;-86
2023/11/17 08:04:42;;;;;;;1.30;1.20;;;4.30;97.30;;;;;;4882977;29;20656;-84
2023/11/17 08:07:07;;;;;;;1.30;1.20;;;4.30;97.30;;;;;;4879711;29;20276;-83
2023/11/17 08:09:33;;;;;;;1.33;1.33;;;4.30;97.30;;;;;;4881054;29;20209;-84
2023/11/17 08:12:00;;;;;;;1.30;1.20;;;4.30;97.30;;;;;;4880039;29;20228;-87
2023/11/17 08:14:26;;;;;;;1.10;1.00;;;4.30;97.30;;;;;;4879288;29;20182;-83
2023/11/17 08:16:52;;;;;;;1.20;1.10;;;4.40;97.30;;;;;;4880153;29;20466;-83
2023/11/17 08:19:18;;;;;;;1.13;1.03;;;4.30;97.30;;;;;;4882164;29;20531;-85
2023/11/17 08:21:43;;;;;;;1.60;1.50;;;4.30;97.30;;;;;;4896404;29;20206;-84
2023/11/17 08:24:09;;;;;;;2.10;1.30;;;4.30;97.30;;;;;;4879412;29;20190;-83
2023/11/17 08:26:36;;;;;;;1.00;0.90;;;4.30;97.30;;;;;;4879486;29;20192;-84
2023/11/17 08:29:03;;;;;;;1.20;1.10;;;4.20;97.30;;;;;;4879136;29;20185;-84
2023/11/17 08:31:29;;;;;;;1.80;1.70;;;4.20;97.30;;;;;;4878653;29;20869;-85
2023/11/17 08:33:54;;;;;;;2.30;1.83;;;4.20;97.30;;;;;;4878287;29;20433;-84
2023/11/17 08:36:24;;;;;;;1.40;1.30;;;4.20;97.30;;;;;;4880315;29;20210;-86
2023/11/17 08:38:52;;;;;;;2.40;2.20;;;4.20;97.30;;;;;;4871777;29;20182;-84
2023/11/17 08:41:17;;;;;;;2.00;1.87;;;4.20;97.30;;;;;;4878966;29;20921;-85
2023/11/17 08:43:43;;;;;;;1.30;1.20;;;4.20;97.30;;;;;;4880725;29;20426;-83
2023/11/17 08:46:09;;;;;;;1.50;1.40;;;4.20;97.30;;;;;;4879077;29;21004;-84
2023/11/17 08:48:36;;;;;;;1.30;1.20;;;4.20;97.30;;;;;;4880943;29;20426;-84
2023/11/17 08:51:02;;;;;;;1.27;1.17;;;4.10;97.30;;;;;;4879474;29;20606;-84
2023/11/17 08:53:29;;;;;;;1.00;0.90;;;4.10;97.30;;;;;;4880501;29;20434;-85
2023/11/17 08:55:55;;;;;;;1.87;1.77;;;4.20;97.30;;;;;;4882324;29;20533;-83
2023/11/17 08:58:20;;;;;;;1.30;1.10;;;4.20;97.30;;;;;;4882439;29;20434;-83
2023/11/17 09:00:49;;;;;;;1.63;1.53;;;4.20;97.30;;;;;;4886681;29;20476;-86
2023/11/17 09:03:15;;;;;;;3.93;1.40;;;4.20;97.30;;;;;;4887379;29;20244;-86
2023/11/17 09:05:41;;;;;;;1.30;1.20;;;4.10;97.30;;;;;;4893181;29;20980;-84
2023/11/17 09:08:07;;;;;;;1.20;1.10;;;4.20;97.30;;;;;;4893003;29;20629;-85
2023/11/17 09:10:33;;;;;;;1.63;1.53;;;4.20;97.30;;;;;;4893598;29;20269;-84
2023/11/17 09:12:59;;;;;;;1.20;1.10;;;4.20;97.30;;;;;;4902184;29;20942;-85
2023/11/17 09:15:27;;;;;;;1.40;1.30;;;4.20;97.30;;;;;;4885806;29;20465;-83
2023/11/17 09:17:53;;;;;;;1.67;1.57;;;4.30;97.30;;;;;;4886398;29;20189;-85
2023/11/17 09:20:23;;;;;;;1.40;1.30;;;4.20;97.30;;;;;;4895852;29;20425;-85
2023/11/17 09:22:50;;;;;;;1.10;1.00;;;4.30;97.30;;;;;;4885007;29;20421;-86
2023/11/17 09:25:17;;;;;;;1.40;1.30;;;4.30;97.30;;;;;;4886002;29;20429;-85
2023/11/17 09:27:46;;;;;;;1.33;1.30;;;4.30;97.30;;;;;;4893678;29;20430;-87
2023/11/17 09:30:14;;;;;;;2.80;1.30;;;4.30;97.30;;;;;;4895365;29;20456;-84
2023/11/17 09:32:44;;;;;;;1.40;1.30;;;4.30;97.30;;;;;;4886072;29;20824;-84
2023/11/17 09:35:15;;;;;;;1.37;1.27;;;4.30;97.30;;;;;;4885208;29;21003;-84
2023/11/17 09:37:58;;;;;;;1.70;1.60;;;4.30;97.30;;;;;;4885492;29;20485;-84
2023/11/17 09:40:26;;;;;;;1.73;1.63;;;4.40;97.30;;;;;;4884413;29;20850;-84
2023/11/17 09:42:57;;;;;;;1.10;1.00;;;4.50;97.30;;;;;;4878466;29;20421;-83
2023/11/17 09:45:27;;;;;;;1.77;1.67;;;4.50;97.30;;;;;;4891286;29;20440;-86
2023/11/17 09:48:05;;;;;;;2.07;1.93;;;4.50;97.30;;;;;;4878763;29;20477;-84
2023/11/17 09:50:31;;;;;;;1.07;0.97;;;4.50;97.30;;;;;;4886721;29;20432;-85
2023/11/17 09:53:00;;;;;;;1.10;1.00;;;4.60;97.30;;;;;;4901546;29;20413;-83
2023/11/17 09:55:28;;;;;;;1.10;1.00;;;4.70;97.30;;;;;;4893277;29;20487;-85
2023/11/17 09:57:57;;;;;;;1.20;1.10;;;4.70;97.30;;;;;;4892745;29;20465;-84
2023/11/17 10:00:27;;;;;;;1.40;1.30;;;4.70;97.30;;;;;;4892104;29;20476;-84
2023/11/17 10:03:00;;;;;;;1.20;1.10;;;4.70;97.30;;;;;;4884215;29;20438;-84
2023/11/17 10:05:28;;;;;;;3.30;3.10;;;4.80;97.30;;;;;;4892163;29;20421;-85
2023/11/17 10:08:00;;;;;;;1.13;1.03;;;4.80;97.30;;;;;;4884810;29;20579;-84
2023/11/17 10:10:27;;;;;;;1.77;1.67;;;4.90;97.30;;;;;;4902584;29;20480;-84
2023/11/17 10:12:57;;;;;;;1.10;1.00;;;4.80;97.30;;;;;;4885448;29;20440;-85
2023/11/17 10:15:25;;;;;;;1.40;1.30;;;4.80;97.30;;;;;;4884956;29;20762;-85
2023/11/17 10:18:12;;;;;;;1.27;1.17;;;4.90;97.30;;;;;;4885355;29;20432;-83
2023/11/17 10:20:38;;;;;;;4.50;1.70;;;4.90;97.30;;;;;;4884755;29;20436;-84
2023/11/17 10:23:05;;;;;;;1.13;1.03;;;4.90;97.30;;;;;;4900241;29;20505;-84
2023/11/17 10:25:32;;;;;;;2.10;1.57;;;5.00;97.30;;;;;;4899197;29;20426;-85
2023/11/17 10:27:59;;;;;;;1.10;1.00;;;5.10;97.30;;;;;;4900839;29;20995;-86
2023/11/17 10:30:26;;;;;;;1.33;1.23;;;5.10;97.30;;;;;;4884394;29;20460;-84
2023/11/17 10:32:58;;;;;;;1.30;1.20;;;5.20;97.30;;;;;;4894563;29;20457;-85
2023/11/17 10:35:24;;;;;;;1.30;1.20;;;5.30;97.30;;;;;;4900977;29;21068;-85
2023/11/17 10:37:54;;;;;;;1.63;1.63;;;5.30;97.30;;;;;;4883291;29;20433;-84
2023/11/17 10:40:25;;;;;;;1.40;1.30;;;5.30;97.30;;;;;;4901558;29;20418;-87
2023/11/17 10:43:11;;;;;;;1.30;1.20;;;5.40;97.30;;;;;;4883226;29;20429;-85
2023/11/17 10:45:38;;;;;;;2.30;1.50;;;5.40;97.30;;;;;;4882572;29;20715;-85
2023/11/17 10:48:12;;;;;;;1.30;1.20;;;5.40;97.30;;;;;;4887952;29;20437;-85
2023/11/17 10:50:38;;;;;;;1.33;1.23;;;5.40;97.30;;;;;;4899315;29;20987;-84
2023/11/17 10:53:20;;;;;;;1.53;1.43;;;5.40;97.30;;;;;;4901381;29;20480;-84
2023/11/17 10:55:48;;;;;;;1.60;1.50;;;5.40;97.30;;;;;;4884485;29;20481;-85
2023/11/17 10:58:15;;;;;;;1.20;1.10;;;5.40;97.30;;;;;;4890825;29;20850;-85
2023/11/17 11:00:43;;;;;;;1.30;1.20;;;5.40;97.30;;;;;;4882137;29;20450;-84
2023/11/17 11:03:13;;;;;;;1.17;1.07;;;5.40;97.30;;;;;;4891929;29;20434;-84
2023/11/17 11:05:41;;;;;;;2.03;1.80;;;5.40;97.30;;;;;;4900682;29;20811;-84
2023/11/17 11:08:22;;;;;;;1.20;1.10;;;5.40;97.30;;;;;;4899009;29;20436;-82
2023/11/17 11:10:57;;;;;;;1.37;1.27;;;5.40;97.30;;;;;;4883300;29;20449;-86
2023/11/17 11:13:28;;;;;;;1.33;1.23;;;5.40;97.30;;;;;;4887223;29;20433;-85
2023/11/17 11:15:59;;;;;;;1.20;1.10;;;5.50;97.30;;;;;;4891451;29;20469;-84
2023/11/17 11:18:25;;;;;;;1.27;1.17;;;5.50;97.30;;;;;;4883048;29;20433;-84
2023/11/17 11:20:51;;;;;;;1.93;1.87;;;5.50;97.30;;;;;;4882137;29;20519;-83
2023/11/17 11:23:17;;;;;;;1.07;0.97;;;5.50;97.30;;;;;;4876998;29;20452;-85
2023/11/17 11:25:45;;;;;;;3.43;1.47;;;5.60;97.30;;;;;;4896429;29;20189;-85
2023/11/17 11:28:12;;;;;;;1.23;1.13;;;5.60;97.30;;;;;;4881924;29;20440;-85
2023/11/17 11:30:39;;;;;;;2.50;1.40;;;5.60;97.30;;;;;;4893443;29;20485;-84
2023/11/17 11:33:05;;;;;;;1.30;1.20;;;5.70;97.30;;;;;;4882365;29;20425;-85
2023/11/17 11:35:30;;;;;;;6.43;2.90;;;5.80;97.30;;;;;;4880847;29;21071;-83
2023/11/17 11:37:56;;;;;;;1.37;1.27;;;5.90;97.30;;;;;;4882065;29;20184;-85
2023/11/17 11:40:22;;;;;;;1.30;1.20;;;6.00;97.30;;;;;;4882285;29;20564;-84
2023/11/17 11:42:49;;;;;;;1.83;1.73;;;6.00;97.30;;;;;;4881067;29;20462;-85
2023/11/17 11:45:19;;;;;;;1.40;1.30;;;6.10;97.30;;;;;;4881337;29;20280;-84
2023/11/17 11:47:49;;;;;;;1.10;1.00;;;6.10;97.30;;;;;;4880842;29;20429;-84
2023/11/17 11:50:22;;;;;;;1.30;1.30;;;6.10;97.30;;;;;;4898801;29;20452;-84
2023/11/17 11:53:16;;;;;;;1.00;0.90;;;6.20;97.30;;;;;;4881240;29;20436;-85
2023/11/17 11:55:42;;;;;;;1.13;1.03;;;6.20;97.30;;;;;;4883643;29;20489;-85
2023/11/17 11:58:08;;;;;;;1.10;1.00;;;6.30;97.30;;;;;;4879419;29;20438;-86
2023/11/17 12:00:35;;;;;;;1.00;0.90;;;6.40;97.30;;;;;;4879829;29;20425;-84
2023/11/17 12:03:07;;;;;;;1.00;0.90;;;6.40;97.30;;;;;;4882154;29;20609;-87
2023/11/17 12:05:33;;;;;;;1.20;1.10;;;6.50;97.30;;;;;;4900949;29;20436;-89
2023/11/17 12:08:19;;;;;;;1.40;1.30;;;6.50;97.30;;;;;;4895945;29;20436;-88
2023/11/17 12:10:44;;;;;;;2.13;1.97;;;6.50;97.30;;;;;;4901800;29;20508;-88
2023/11/17 12:13:41;;;;;;;1.50;1.40;;;6.60;97.30;;;;;;4910443;29;20429;-88
2023/11/17 12:16:12;;;;;;;1.10;1.00;;;6.60;97.30;;;;;;4896077;29;20205;-89
2023/11/17 12:18:42;;;;;;;1.20;1.10;;;6.60;97.30;;;;;;4906482;29;20433;-86
2023/11/17 12:21:22;;;;;;;1.13;1.03;;;6.70;97.30;;;;;;4901603;29;21075;-89
2023/11/17 12:23:54;;;;;;;1.47;1.37;;;6.70;97.30;;;;;;4914055;29;20422;-88
2023/11/17 12:26:21;;;;;;;1.10;1.00;;;6.70;97.30;;;;;;4913792;29;20531;-87
2023/11/17 12:28:48;;;;;;;1.40;1.30;;;6.80;97.30;;;;;;4903753;29;20430;-88
2023/11/17 12:31:15;;;;;;;1.30;1.20;;;6.80;97.30;;;;;;4893105;29;20532;-87
2023/11/17 12:33:42;;;;;;;1.53;1.43;;;6.80;97.30;;;;;;4884761;29;20437;-88
2023/11/17 12:36:13;;;;;;;1.30;1.20;;;6.90;97.30;;;;;;4884632;29;20476;-88
2023/11/17 12:38:40;;;;;;;1.10;1.00;;;6.90;97.30;;;;;;4902089;29;20457;-88
2023/11/17 12:41:10;;;;;;;1.10;1.00;;;6.90;97.30;;;;;;4885366;29;20453;-88
2023/11/17 12:43:40;;;;;;;1.20;1.10;;;6.90;97.30;;;;;;4888807;29;20445;-86
2023/11/17 12:46:07;;;;;;;1.10;1.00;;;6.90;97.30;;;;;;4880760;29;20456;-90
2023/11/17 12:48:34;;;;;;;1.37;1.10;;;6.90;97.30;;;;;;4880290;29;20466;-89
2023/11/17 12:51:01;;;;;;;1.10;1.00;;;7.00;97.30;;;;;;4895101;29;20459;-89
2023/11/17 12:53:45;;;;;;;1.30;1.20;;;7.00;97.30;;;;;;4899132;29;20417;-87
2023/11/17 12:56:12;;;;;;;1.17;1.10;;;7.00;97.30;;;;;;4875446;29;20544;-89
2023/11/17 12:58:38;;;;;;;1.10;1.00;;;7.00;97.30;;;;;;4880880;29;20433;-89
2023/11/17 13:01:17;;;;;;;1.10;1.00;;;7.00;97.30;;;;;;4880363;29;20458;-88
2023/11/17 13:03:44;;;;;;;1.33;1.23;;;7.00;97.30;;;;;;4881636;29;20429;-89
2023/11/17 13:06:10;;;;;;;1.00;0.90;;;7.00;97.30;;;;;;4881147;29;20863;-89
2023/11/17 13:08:37;;;;;;;1.43;1.10;;;6.90;97.30;;;;;;4889000;29;20472;-89
2023/11/17 13:11:07;;;;;;;1.10;1.00;;;6.90;97.30;;;;;;4875815;29;20445;-89
2023/11/17 13:13:37;;;;;;;1.50;1.33;;;7.00;97.30;;;;;;4882030;29;20444;-89
2023/11/17 13:16:08;;;;;;;1.40;1.30;;;6.90;97.30;;;;;;4892767;29;20552;-88
2023/11/17 13:18:34;;;;;;;1.10;1.00;;;6.90;97.30;;;;;;4883391;29;20964;-89
2023/11/17 13:21:00;;;;;;;1.20;1.10;;;6.90;97.30;;;;;;4882166;29;20492;-89
2023/11/17 13:23:27;;;;;;;1.10;1.00;;;6.90;97.30;;;;;;4881968;29;20181;-90
2023/11/17 13:26:06;;;;;;;1.20;1.10;;;6.90;97.30;;;;;;4898554;29;20432;-87
2023/11/17 13:28:38;;;;;;;1.53;1.43;;;6.90;97.30;;;;;;4878159;29;20525;-88
2023/11/17 13:31:18;;;;;;;1.10;1.00;;;7.00;97.30;;;;;;4895392;29;20810;-89
2023/11/17 13:33:45;;;;;;;1.23;1.10;;;7.00;97.30;;;;;;4877993;29;20426;-88
2023/11/17 13:36:11;;;;;;;1.10;1.00;;;7.00;97.30;;;;;;4882210;29;20512;-89
2023/11/17 13:38:56;;;;;;;1.20;1.10;;;7.00;97.30;;;;;;4881266;29;20433;-88
2023/11/17 13:41:29;;;;;;;1.00;0.90;;;7.10;97.30;;;;;;4877212;29;20593;-89
2023/11/17 13:43:58;;;;;;;1.00;0.90;;;7.10;97.30;;;;;;4897584;29;20433;-89
2023/11/17 13:46:31;;;;;;;1.00;1.00;;;7.20;97.30;;;;;;4893863;29;20466;-89
2023/11/17 13:49:03;;;;;;;1.10;1.00;;;7.20;97.30;;;;;;4898012;29;20422;-88
2023/11/17 13:51:34;;;;;;;2.30;1.10;;;7.20;97.30;;;;;;4879231;29;20836;-88
2023/11/17 13:54:00;;;;;;;1.30;1.20;;;7.30;97.30;;;;;;4881834;29;20437;-89
2023/11/17 13:56:26;;;;;;;1.30;1.20;;;7.30;97.30;;;;;;4878572;29;20806;-87
2023/11/17 13:58:53;;;;;;;1.10;1.00;;;7.30;97.30;;;;;;4879071;29;20445;-89
2023/11/17 14:01:19;;;;;;;1.20;1.10;;;7.30;97.30;;;;;;4874518;29;20244;-89
2023/11/17 14:03:45;;;;;;;1.20;1.10;;;7.30;97.30;;;;;;4871530;29;20446;-85
2023/11/17 14:06:10;;;;;;;1.10;1.00;;;7.30;97.30;;;;;;4867821;29;20434;-88
2023/11/17 14:08:36;;;;;;;1.30;1.20;;;7.30;97.30;;;;;;4876193;29;20186;-90
2023/11/17 14:11:02;;;;;;;3.63;1.67;;;7.30;97.30;;;;;;4874064;29;20728;-88
2023/11/17 14:13:27;;;;;;;1.20;1.10;;;7.30;97.30;;;;;;4876835;29;20323;-90
2023/11/17 14:15:53;;;;;;;1.30;1.20;;;7.30;97.30;;;;;;4874648;29;20316;-87
2023/11/17 14:18:18;;;;;;;1.57;1.47;;;7.30;97.30;;;;;;4874946;29;20285;-87
2023/11/17 14:20:44;;;;;;;1.30;1.20;;;7.30;97.30;;;;;;4875069;29;20250;-89
2023/11/17 14:23:11;;;;;;;2.10;1.97;;;7.40;97.30;;;;;;4876959;29;20720;-89
2023/11/17 14:25:36;;;;;;;1.53;1.50;;;7.40;97.30;;;;;;4878773;29;20193;-87
2023/11/17 14:28:02;;;;;;;1.20;1.10;;;7.50;97.30;;;;;;4877081;29;20886;-90
2023/11/17 14:30:28;;;;;;;1.10;1.00;;;7.60;97.30;;;;;;4876904;29;20240;-88
2023/11/17 14:32:53;;;;;;;4.80;2.30;;;7.60;97.30;;;;;;4878549;29;20504;-88
2023/11/17 14:35:19;;;;;;;1.17;1.07;;;7.60;97.30;;;;;;4877104;29;20231;-87
2023/11/17 14:37:45;;;;;;;1.67;1.57;;;7.70;97.30;;;;;;4875778;29;20720;-88
2023/11/17 14:40:18;;;;;;;1.67;1.43;;;7.60;97.30;;;;;;4876852;29;20802;-87
2023/11/17 14:42:44;;;;;;;1.20;1.10;;;7.60;97.30;;;;;;4876853;29;20202;-88
2023/11/17 14:45:14;;;;;;;1.10;1.00;;;7.60;97.30;;;;;;4868764;29;20950;-87
2023/11/17 14:47:41;;;;;;;1.10;1.00;;;7.60;97.30;;;;;;4875620;29;20785;-89
2023/11/17 14:50:13;;;;;;;1.10;1.00;;;7.60;97.30;;;;;;4878081;29;21008;-88
2023/11/17 14:52:39;;;;;;;1.10;1.00;;;7.60;97.30;;;;;;4892677;29;20453;-88
2023/11/17 14:55:05;;;;;;;1.13;1.00;;;7.60;97.30;;;;;;4876620;29;20422;-88
2023/11/17 14:57:31;;;;;;;1.80;1.20;;;7.60;97.30;;;;;;4877933;29;20509;-88
2023/11/17 14:59:56;;;;;;;1.10;1.10;;;7.50;97.30;;;;;;4875449;29;20563;-89
2023/11/17 15:02:23;;;;;;;2.60;1.00;;;7.50;97.30;;;;;;4874091;29;20229;-89
2023/11/17 15:04:48;;;;;;;1.20;1.10;;;7.50;97.30;;;;;;4870167;29;20955;-89
2023/11/17 15:07:14;;;;;;;1.10;1.00;;;7.50;97.30;;;;;;4875980;29;20620;-89
2023/11/17 15:09:41;;;;;;;1.50;1.40;;;7.40;97.30;;;;;;4872797;29;20186;-88
2023/11/17 15:12:10;;;;;;;1.10;1.00;;;7.30;97.30;;;;;;4876899;29;20210;-90
2023/11/17 15:14:36;;;;;;;1.33;1.23;;;7.30;97.30;;;;;;4872143;29;20984;-88
2023/11/17 15:17:01;;;;;;;1.10;1.00;;;7.30;97.30;;;;;;4874118;29;20477;-90
2023/11/17 15:19:28;;;;;;;1.00;0.90;;;7.40;97.30;;;;;;4874545;29;20194;-90
2023/11/17 15:21:56;;;;;;;1.07;0.97;;;7.40;97.30;;;;;;4875425;29;20688;-89
2023/11/17 15:24:24;;;;;;;1.30;1.20;;;7.30;97.30;;;;;;4869938;29;20438;-89
2023/11/17 15:26:53;;;;;;;1.17;1.07;;;7.30;97.30;;;;;;4875587;29;20441;-90
2023/11/17 15:29:22;;;;;;;2.10;1.30;;;7.20;97.30;;;;;;4877005;29;20427;-88
2023/11/17 15:31:47;;;;;;;1.17;1.07;;;7.20;97.30;;;;;;4876504;29;20438;-91
2023/11/17 15:34:16;;;;;;;1.10;1.00;;;7.20;97.30;;;;;;4872748;29;20434;-89
2023/11/17 15:36:43;;;;;;;1.00;0.90;;;7.30;97.30;;;;;;4872638;29;20212;-90
2023/11/17 15:39:15;;;;;;;1.10;1.00;;;7.30;97.30;;;;;;4871114;29;20828;-89
2023/11/17 15:41:44;;;;;;;1.03;0.93;;;7.30;97.30;;;;;;4871608;29;21000;-90
2023/11/17 15:44:18;;;;;;;1.00;0.90;;;7.30;97.30;;;;;;4872247;29;20406;-91
2023/11/17 15:46:45;;;;;;;1.87;1.77;;;7.10;97.30;;;;;;4873590;29;20521;-89
2023/11/17 15:49:11;;;;;;;1.40;1.30;;;7.10;97.30;;;;;;4872746;29;20457;-91
2023/11/17 15:51:37;;;;;;;1.33;1.23;;;7.20;97.30;;;;;;4873107;29;20874;-90
2023/11/17 15:54:04;;;;;;;1.33;1.23;;;7.20;97.30;;;;;;4873959;29;20197;-90
2023/11/17 15:56:30;;;;;;;1.27;1.20;;;7.30;97.30;;;;;;4871649;29;20992;-89
2023/11/17 15:58:59;;;;;;;1.47;1.37;;;7.30;97.30;;;;;;4872073;29;20487;-90
2023/11/17 16:01:25;;;;;;;2.27;2.07;;;7.40;97.30;;;;;;4884137;29;20896;-89
2023/11/17 16:03:54;;;;;;;1.20;1.10;;;7.40;97.30;;;;;;4877919;29;20476;-89
2023/11/17 16:06:23;;;;;;;1.17;1.07;;;7.40;97.30;;;;;;4881134;29;20774;-89
2023/11/17 16:08:49;;;;;;;1.10;1.00;;;7.40;97.30;;;;;;4890622;29;20445;-90
2023/11/17 16:11:21;;;;;;;1.20;1.10;;;7.50;97.30;;;;;;4877356;29;20976;-89
2023/11/17 16:13:48;;;;;;;1.10;1.00;;;7.50;97.30;;;;;;4890309;29;20524;-89
2023/11/17 16:16:18;;;;;;;1.20;1.10;;;7.50;97.30;;;;;;4876996;29;20465;-90
2023/11/17 16:18:46;;;;;;;1.10;1.00;;;7.60;97.30;;;;;;4881109;29;20445;-89
2023/11/17 16:21:12;;;;;;;1.10;1.00;;;7.50;97.30;;;;;;4894767;29;21018;-92
2023/11/17 16:23:38;;;;;;;1.10;1.00;;;7.40;97.30;;;;;;4895070;29;20422;-91
2023/11/17 16:26:05;;;;;;;1.20;1.10;;;7.40;97.30;;;;;;4895446;29;20216;-90
2023/11/17 16:28:31;;;;;;;1.10;1.00;;;7.40;97.30;;;;;;4880298;29;20682;-90
2023/11/17 16:30:59;;;;;;;3.20;3.00;;;7.30;97.30;;;;;;4877503;29;20485;-90
2023/11/17 16:33:24;;;;;;;3.63;1.50;;;7.20;97.30;;;;;;4881384;29;20490;-89
2023/11/17 16:35:51;;;;;;;1.20;1.10;;;7.10;97.30;;;;;;4900437;29;20496;-90
2023/11/17 16:38:17;;;;;;;1.30;1.20;;;6.90;97.30;;;;;;4873964;29;20180;-90
2023/11/17 16:40:43;;;;;;;2.93;1.83;;;6.80;97.30;;;;;;4877826;29;20446;-89
2023/11/17 16:43:09;;;;;;;1.20;1.10;;;6.70;97.30;;;;;;4874478;29;20187;-89
2023/11/17 16:45:36;;;;;;;1.83;1.30;;;6.80;97.30;;;;;;4891938;29;20421;-90
2023/11/17 16:48:03;;;;;;;1.77;1.50;;;6.80;97.30;;;;;;4891637;29;20220;-89
2023/11/17 16:50:38;;;;;;;1.40;1.30;;;6.70;97.30;;;;;;4878074;29;20422;-89
2023/11/17 16:53:10;;;;;;;1.60;1.50;;;6.70;97.30;;;;;;4880201;29;20492;-90
2023/11/17 16:55:36;;;;;;;1.43;1.43;;;6.60;97.30;;;;;;4889995;29;20991;-89
2023/11/17 16:58:03;;;;;;;2.67;1.37;;;6.70;97.30;;;;;;4903779;29;20425;-89
2023/11/17 17:00:32;;;;;;;2.80;1.60;;;6.70;97.30;;;;;;4904065;29;20436;-89
2023/11/17 17:03:02;;;;;;;4.60;1.20;;;6.70;97.30;;;;;;4913373;29;20438;-89
2023/11/17 17:05:28;;;;;;;3.37;2.57;;;6.60;97.30;;;;;;4886225;29;20547;-89
2023/11/17 17:07:55;;;;;;;8.50;1.90;;;6.70;97.30;;;;;;4884622;29;20433;-87
2023/11/17 17:10:21;;;;;;;1.63;1.53;;;6.70;97.30;;;;;;4884335;29;20505;-89
2023/11/17 17:12:49;;;;;;;1.33;1.27;;;6.70;97.30;;;;;;4901304;29;20798;-89
2023/11/17 17:15:15;;;;;;;1.90;1.60;;;6.80;97.30;;;;;;4884488;29;20564;-89
2023/11/17 17:17:46;;;;;;;1.50;1.40;;;6.90;97.30;;;;;;4882201;29;20462;-89
2023/11/17 17:20:13;;;;;;;1.20;1.10;;;6.90;97.30;;;;;;4879645;29;20242;-90
2023/11/17 17:22:47;;;;;;;1.27;1.17;;;6.80;97.30;;;;;;4889904;29;20480;-89
2023/11/17 17:25:18;;;;;;;1.57;1.47;;;6.80;97.30;;;;;;4891215;29;20481;-85
2023/11/17 17:27:46;;;;;;;3.23;1.33;;;6.80;97.30;;;;;;4900000;29;20916;-91
2023/11/17 17:30:14;;;;;;;1.20;1.10;;;6.70;97.30;;;;;;4881399;29;21019;-88
2023/11/17 17:32:41;;;;;;;1.67;1.37;;;6.80;97.30;;;;;;4900295;29;20537;-91
2023/11/17 17:35:10;;;;;;;1.33;1.23;;;6.80;97.30;;;;;;4877420;29;20972;-89
2023/11/17 17:37:36;;;;;;;4.20;1.87;;;6.90;97.30;;;;;;4895494;29;20453;-89
2023/11/17 17:40:07;;;;;;;1.40;1.30;;;7.00;97.30;;;;;;4880355;29;20425;-89
2023/11/17 17:42:32;;;;;;;1.10;1.00;;;7.00;97.30;;;;;;4881803;29;20449;-89
2023/11/17 17:44:58;;;;;;;1.00;0.90;;;6.90;97.30;;;;;;4879214;29;20784;-90
2023/11/17 17:47:24;;;;;;;1.20;1.10;;;6.80;97.30;;;;;;4894892;29;20189;-89
2023/11/17 17:49:49;;;;;;;1.37;1.33;;;6.80;97.30;;;;;;4881518;29;20185;-90
2023/11/17 17:52:15;;;;;;;2.30;1.20;;;6.70;97.30;;;;;;4886379;29;20216;-89
2023/11/17 17:54:40;;;;;;;1.13;1.03;;;6.70;97.30;;;;;;4882569;29;20213;-89
2023/11/17 17:57:07;;;;;;;1.93;1.83;;;6.70;97.30;;;;;;4876136;29;20213;-88
2023/11/17 17:59:32;;;;;;;1.40;1.30;;;6.70;97.30;;;;;;4888219;29;20189;-90
2023/11/17 18:02:00;;;;;;;1.20;1.10;;;6.70;97.30;;;;;;4876492;29;20513;-89